Time,TemperatureF,DewpointF,PressureIn,WindDirection,WindDirectionDegrees,WindSpeedMPH,WindSpeedGustMPH,Humidity,HourlyPrecipIn,Conditions,Clouds,dailyrainin,SoftwareType,DateUTC
2013-04-18 00:00:00,75.5,71.4,29.65,SE,143,7.0,22.0,87,0.00,,SKC,0.00,VWS V14.01,2013-04-18 05:00:00,
2013-04-18 00:02:00,75.5,71.4,29.65,SE,141,13.0,17.0,87,0.00,,SKC,0.00,VWS V14.01,2013-04-18 05:02:00,
2013-04-18 00:08:00,75.5,71.4,29.65,SSE,155,10.0,18.0,87,0.00,,SKC,0.00,VWS V14.01,2013-04-18 05:08:00,
2013-04-18 00:14:00,75.5,71.4,29.64,SE,145,8.0,19.0,87,0.00,,SKC,0.00,VWS V14.01,2013-04-18 05:14:00,
2013-04-18 00:20:00,75.5,71.4,29.66,South,180,6.0,19.0,87,0.00,,SKC,0.00,VWS V14.01,2013-04-18 05:20:00,
2013-04-18 00:26:00,75.5,71.4,29.65,SE,131,8.0,19.0,87,0.00,,SKC,0.00,VWS V14.01,2013-04-18 05:26:00,
2013-04-18 00:30:00,75.4,71.3,29.66,SSW,211,10.0,24.0,87,0.00,,SKC,0.00,VWS V14.01,2013-04-18 05:30:00,
2013-04-18 00:32:00,75.4,71.3,29.66,WSW,241,8.0,17.0,87,0.00,,SKC,0.00,VWS V14.01,2013-04-18 05:32:00,
2013-04-18 00:38:00,75.3,71.2,29.65,SSW,213,9.0,18.0,87,0.00,,SKC,0.00,VWS V14.01,2013-04-18 05:38:00,
2013-04-18 00:44:00,75.1,71.0,29.65,South,185,6.0,18.0,87,0.00,,SKC,0.00,VWS V14.01,2013-04-18 05:44:00,
2013-04-18 00:50:00,75.1,71.0,29.67,SSE,161,8.0,19.0,87,0.00,,SKC,0.00,VWS V14.01,2013-04-18 05:50:00,
2013-04-18 00:56:00,75.1,71.0,29.67,SSE,150,14.0,19.0,87,0.00,,SKC,0.00,VWS V14.01,2013-04-18 05:56:00,
2013-04-18 01:00:00,75.1,71.0,29.64,South,184,8.0,19.0,87,0.00,,SKC,0.00,VWS V14.01,2013-04-18 06:00:00,
2013-04-18 01:02:00,75.1,71.0,29.66,SSE,163,14.0,21.0,87,0.00,,SKC,0.00,VWS V14.01,2013-04-18 06:02:00,
2013-04-18 01:08:00,75.2,71.1,29.66,SSE,157,10.0,21.0,87,0.00,,SKC,0.00,VWS V14.01,2013-04-18 06:08:00,
2013-04-18 01:14:00,75.0,70.9,29.64,South,188,9.0,21.0,87,0.00,,SKC,0.00,VWS V14.01,2013-04-18 06:14:00,
2013-04-18 01:20:00,74.7,70.9,29.66,SSE,151,10.0,21.0,88,0.00,,SKC,0.00,VWS V14.01,2013-04-18 06:20:00,
2013-04-18 01:26:00,74.1,70.7,29.64,SW,234,6.0,21.0,89,0.00,,SKC,0.00,VWS V14.01,2013-04-18 06:26:00,
2013-04-18 01:30:00,73.7,70.6,29.64,South,173,10.0,21.0,90,0.00,,SKC,0.00,VWS V14.01,2013-04-18 06:30:00,
2013-04-18 01:32:00,73.7,70.9,29.61,SW,219,9.0,18.0,91,0.00,,SKC,0.00,VWS V14.01,2013-04-18 06:32:00,
2013-04-18 01:38:00,73.3,70.5,29.65,ESE,110,12.0,18.0,91,0.00,,SKC,0.00,VWS V14.01,2013-04-18 06:38:00,
2013-04-18 01:44:00,73.2,70.4,29.66,SE,144,12.0,19.0,91,0.00,,SKC,0.00,VWS V14.01,2013-04-18 06:44:00,
2013-04-18 01:50:00,73.4,70.6,29.66,SSW,203,5.0,19.0,91,0.00,,SKC,0.00,VWS V14.01,2013-04-18 06:50:00,
2013-04-18 01:56:00,73.6,70.5,29.65,SSE,163,12.0,19.0,90,0.00,,SKC,0.00,VWS V14.01,2013-04-18 06:56:00,
2013-04-18 02:00:00,73.7,70.3,29.66,SE,134,9.0,19.0,89,0.00,,SKC,0.00,VWS V14.01,2013-04-18 07:00:00,
2013-04-18 02:03:00,73.7,70.3,29.65,South,179,6.0,13.0,89,0.00,,SKC,0.00,VWS V14.01,2013-04-18 07:03:00,
2013-04-18 02:09:00,73.9,70.1,29.65,South,174,6.0,17.0,88,0.00,,SKC,0.00,VWS V14.01,2013-04-18 07:09:00,
2013-04-18 02:15:00,74.1,70.0,29.65,SSE,163,11.0,17.0,87,0.00,,SKC,0.00,VWS V14.01,2013-04-18 07:15:00,
2013-04-18 02:21:00,74.2,69.8,29.64,SSE,166,15.0,17.0,86,0.00,,SKC,0.00,VWS V14.01,2013-04-18 07:21:00,
2013-04-18 02:27:00,74.2,69.4,29.62,South,186,10.0,17.0,85,0.00,,SKC,0.00,VWS V14.01,2013-04-18 07:27:00,
2013-04-18 02:30:00,74.2,69.4,29.63,South,173,8.0,17.0,85,0.00,,SKC,0.00,VWS V14.01,2013-04-18 07:30:00,
2013-04-18 02:33:00,74.2,69.4,29.63,SSW,199,6.0,14.0,85,0.00,,SKC,0.00,VWS V14.01,2013-04-18 07:33:00,
2013-04-18 02:39:00,74.2,69.4,29.63,South,188,5.0,16.0,85,0.00,,SKC,0.00,VWS V14.01,2013-04-18 07:39:00,
2013-04-18 02:45:00,74.3,69.2,29.61,SE,134,11.0,19.0,84,0.00,,SKC,0.00,VWS V14.01,2013-04-18 07:45:00,
2013-04-18 02:51:00,74.4,69.3,29.61,East,80,14.0,19.0,84,0.00,,SKC,0.00,VWS V14.01,2013-04-18 07:51:00,
2013-04-18 02:57:00,74.4,68.9,29.57,West,259,8.0,19.0,83,0.00,,SKC,0.00,VWS V14.01,2013-04-18 07:57:00,
2013-04-18 03:00:00,74.3,68.8,29.59,SSE,159,9.0,21.0,83,0.00,,SKC,0.00,VWS V14.01,2013-04-18 08:00:00,
2013-04-18 03:03:00,74.3,68.8,29.59,SSW,200,10.0,16.0,83,0.00,,SKC,0.00,VWS V14.01,2013-04-18 08:03:00,
2013-04-18 03:09:00,74.3,68.8,29.59,SE,141,13.0,17.0,83,0.00,,SKC,0.00,VWS V14.01,2013-04-18 08:09:00,
2013-04-18 03:15:00,74.3,68.8,29.58,SW,225,15.0,21.0,83,0.00,,SKC,0.00,VWS V14.01,2013-04-18 08:15:00,
2013-04-18 03:21:00,74.2,68.7,29.58,South,178,11.0,21.0,83,0.00,,SKC,0.00,VWS V14.01,2013-04-18 08:21:00,
2013-04-18 03:27:00,74.1,69.0,29.58,South,190,7.0,21.0,84,0.00,,SKC,0.00,VWS V14.01,2013-04-18 08:27:00,
2013-04-18 03:30:00,74.1,69.0,29.57,SSE,161,9.0,21.0,84,0.00,,SKC,0.00,VWS V14.01,2013-04-18 08:30:00,
2013-04-18 03:33:00,74.1,69.0,29.57,SW,215,14.0,16.0,84,0.00,,SKC,0.00,VWS V14.01,2013-04-18 08:33:00,
2013-04-18 03:39:00,74.2,68.7,29.58,SSW,193,13.0,18.0,83,0.00,,SKC,0.00,VWS V14.01,2013-04-18 08:39:00,
2013-04-18 03:45:00,74.2,68.7,29.58,SW,234,17.0,19.0,83,0.00,,SKC,0.00,VWS V14.01,2013-04-18 08:45:00,
2013-04-18 03:51:00,74.1,68.6,29.58,WNW,287,6.0,19.0,83,0.00,,SKC,0.00,VWS V14.01,2013-04-18 08:51:00,
2013-04-18 03:57:00,74.2,68.7,29.55,South,190,18.0,19.0,83,0.00,,SKC,0.00,VWS V14.01,2013-04-18 08:57:00,
2013-04-18 04:00:00,74.2,68.7,29.58,SSE,153,9.0,19.0,83,0.00,,SKC,0.00,VWS V14.01,2013-04-18 09:00:00,
2013-04-18 04:03:00,74.2,68.7,29.57,SE,140,13.0,13.0,83,0.00,,SKC,0.00,VWS V14.01,2013-04-18 09:03:00,
2013-04-18 04:09:00,74.3,68.8,29.58,SE,146,10.0,15.0,83,0.00,,SKC,0.00,VWS V14.01,2013-04-18 09:09:00,
2013-04-18 04:15:00,74.3,68.8,29.55,South,189,7.0,20.0,83,0.00,,SKC,0.00,VWS V14.01,2013-04-18 09:15:00,
2013-04-18 04:21:00,74.3,68.4,29.58,SSE,165,4.0,20.0,82,0.00,,SKC,0.00,VWS V14.01,2013-04-18 09:21:00,
2013-04-18 04:27:00,74.4,68.6,29.58,SSW,211,7.0,20.0,82,0.00,,SKC,0.00,VWS V14.01,2013-04-18 09:27:00,
2013-04-18 04:30:00,74.4,68.6,29.58,SSE,148,11.0,20.0,82,0.00,,SKC,0.00,VWS V14.01,2013-04-18 09:30:00,
2013-04-18 04:33:00,74.4,68.6,29.57,South,179,15.0,18.0,82,0.00,,SKC,0.00,VWS V14.01,2013-04-18 09:33:00,
2013-04-18 04:39:00,74.4,68.6,29.58,WSW,239,7.0,23.0,82,0.00,,SKC,0.00,VWS V14.01,2013-04-18 09:39:00,
2013-04-18 04:45:00,74.4,68.6,29.58,SSW,213,8.0,23.0,82,0.00,,SKC,0.00,VWS V14.01,2013-04-18 09:45:00,
2013-04-18 04:51:00,74.3,68.4,29.57,WSW,244,9.0,23.0,82,0.00,,SKC,0.00,VWS V14.01,2013-04-18 09:51:00,
2013-04-18 04:57:00,74.4,68.6,29.59,SSW,211,11.0,23.0,82,0.00,,SKC,0.00,VWS V14.01,2013-04-18 09:57:00,
2013-04-18 05:00:00,74.4,68.6,29.59,SSW,205,4.0,23.0,82,0.00,,SKC,0.00,VWS V14.01,2013-04-18 10:00:00,
2013-04-18 05:03:00,74.4,68.6,29.63,SSW,211,12.0,12.0,82,0.00,,SKC,0.00,VWS V14.01,2013-04-18 10:03:00,
2013-04-18 05:30:00,59.3,56.1,29.68,NNW,338,6.0,22.0,89,0.26,,SKC,0.26,VWS V14.01,2013-04-18 10:30:00,
2013-04-18 06:00:00,56.3,53.7,29.76,NNW,338,3.0,10.0,91,0.51,,SKC,0.51,VWS V14.01,2013-04-18 11:00:00,
2013-04-18 06:30:00,59.3,56.1,29.68,NNW,338,6.0,22.0,89,0.26,,SKC,0.26,VWS V14.01,2013-04-18 11:30:00,
2013-04-18 06:55:00,52.0,50.0,29.79,NNW,337,2.0,5.0,93,0.77,,SKC,0.77,VWS V14.01,2013-04-18 11:55:00,
2013-04-18 07:00:00,56.3,53.7,29.76,NNW,338,3.0,10.0,91,0.51,,SKC,0.51,VWS V14.01,2013-04-18 12:00:00,
2013-04-18 07:01:00,51.6,49.7,29.72,ENE,65,1.0,10.0,93,0.79,,SKC,0.79,VWS V14.01,2013-04-18 12:01:00,
2013-04-18 07:07:00,51.2,49.2,29.72,East,98,3.0,9.0,93,0.30,,SKC,0.81,VWS V14.01,2013-04-18 12:07:00,
2013-04-18 07:13:00,50.9,49.0,29.78,WNW,296,5.0,9.0,93,0.32,,SKC,0.83,VWS V14.01,2013-04-18 12:13:00,
2013-04-18 07:19:00,50.7,48.8,29.78,SE,135,3.0,9.0,93,0.33,,SKC,0.84,VWS V14.01,2013-04-18 12:19:00,
2013-04-18 07:25:00,50.7,48.8,29.83,NNW,333,2.0,9.0,93,0.35,,SKC,0.86,VWS V14.01,2013-04-18 12:25:00,
2013-04-18 07:30:00,50.5,48.6,29.81,NW,314,3.0,9.0,93,0.37,,SKC,0.88,VWS V14.01,2013-04-18 12:30:00,
2013-04-18 07:31:00,50.5,48.6,29.81,NW,314,3.0,9.0,93,0.37,,SKC,0.88,VWS V14.01,2013-04-18 12:31:00,
2013-04-18 07:37:00,50.2,48.3,29.85,North,349,10.0,10.0,93,0.10,,SKC,0.89,VWS V14.01,2013-04-18 12:37:00,
2013-04-18 07:43:00,49.4,47.5,29.84,NW,315,5.0,12.0,93,0.12,,SKC,0.91,VWS V14.01,2013-04-18 12:43:00,
2013-04-18 07:49:00,49.1,47.2,29.84,NW,319,5.0,12.0,93,0.14,,SKC,0.93,VWS V14.01,2013-04-18 12:49:00,
2013-04-18 07:55:00,48.9,47.0,29.85,NNW,331,5.0,13.0,93,0.16,,SKC,0.95,VWS V14.01,2013-04-18 12:55:00,
2013-04-18 08:00:00,51.6,49.7,29.72,ENE,65,1.0,10.0,93,0.79,,SKC,0.79,VWS V14.01,2013-04-18 13:00:00,
2013-04-18 08:01:00,48.5,46.6,29.83,North,355,5.0,13.0,93,0.17,,SKC,0.96,VWS V14.01,2013-04-18 13:01:00,
2013-04-18 08:08:00,48.5,46.6,29.85,ESE,103,8.0,14.0,93,0.17,,SKC,0.96,VWS V14.01,2013-04-18 13:08:00,
2013-04-18 08:14:00,48.2,46.3,29.81,NNW,340,3.0,14.0,93,0.18,,SKC,0.97,VWS V14.01,2013-04-18 13:14:00,
2013-04-18 08:20:00,48.1,46.2,29.85,North,360,2.0,14.0,93,0.18,,SKC,0.97,VWS V14.01,2013-04-18 13:20:00,
2013-04-18 08:26:00,48.1,46.2,29.86,North,360,1.0,14.0,93,0.18,,SKC,0.97,VWS V14.01,2013-04-18 13:26:00,
2013-04-18 08:30:00,50.5,48.6,29.81,NW,314,3.0,9.0,93,0.37,,SKC,0.88,VWS V14.01,2013-04-18 13:30:00,
2013-04-18 08:32:00,47.9,46.0,29.85,East,99,3.0,5.0,93,0.10,,SKC,0.98,VWS V14.01,2013-04-18 13:32:00,
2013-04-18 08:38:00,47.9,46.0,29.86,NNE,24,2.0,12.0,93,0.10,,SKC,0.98,VWS V14.01,2013-04-18 13:38:00,
2013-04-18 08:44:00,47.7,45.5,29.88,ESE,123,3.0,12.0,92,0.10,,SKC,0.98,VWS V14.01,2013-04-18 13:44:00,
2013-04-18 08:50:00,47.5,45.3,29.88,SW,230,3.0,12.0,92,0.10,,SKC,0.98,VWS V14.01,2013-04-18 13:50:00,
2013-04-18 08:56:00,47.4,45.2,29.89,NW,311,5.0,12.0,92,0.10,,SKC,0.98,VWS V14.01,2013-04-18 13:56:00,
2013-04-18 09:00:00,48.5,46.6,29.83,North,355,5.0,13.0,93,0.17,,SKC,0.96,VWS V14.01,2013-04-18 14:00:00,
2013-04-18 09:01:00,47.3,45.1,29.86,NE,55,3.0,12.0,92,0.10,,SKC,0.98,VWS V14.01,2013-04-18 14:01:00,
2013-04-18 09:08:00,47.1,44.9,29.85,ESE,121,3.0,11.0,92,0.03,,SKC,0.99,VWS V14.01,2013-04-18 14:08:00,
2013-04-18 09:14:00,47.1,44.9,29.87,SSW,207,5.0,11.0,92,0.03,,SKC,0.99,VWS V14.01,2013-04-18 14:14:00,
2013-04-18 09:20:00,47.0,44.8,29.86,North,5,3.0,14.0,92,0.03,,SKC,0.99,VWS V14.01,2013-04-18 14:20:00,
2013-04-18 09:26:00,47.0,44.8,29.87,NNW,338,5.0,14.0,92,0.03,,SKC,0.99,VWS V14.01,2013-04-18 14:26:00,
2013-04-18 09:30:00,47.9,46.0,29.85,ESE,117,5.0,14.0,93,0.19,,SKC,0.98,VWS V14.01,2013-04-18 14:30:00,
2013-04-18 09:31:00,46.9,44.7,29.88,NNW,339,6.0,14.0,92,0.03,,SKC,0.99,VWS V14.01,2013-04-18 14:31:00,
2013-04-18 09:38:00,46.9,44.7,29.93,SE,127,5.0,11.0,92,0.02,,SKC,1.00,VWS V14.01,2013-04-18 14:38:00,
2013-04-18 09:44:00,46.8,44.3,29.91,East,97,6.0,14.0,91,0.04,,SKC,1.02,VWS V14.01,2013-04-18 14:44:00,
2013-04-18 09:50:00,46.4,43.9,29.86,NW,314,1.0,14.0,91,0.05,,SKC,1.03,VWS V14.01,2013-04-18 14:50:00,
2013-04-18 09:56:00,46.4,43.9,29.92,East,84,2.0,14.0,91,0.06,,SKC,1.04,VWS V14.01,2013-04-18 14:56:00,
2013-04-18 10:00:00,47.3,45.1,29.86,NE,55,3.0,12.0,92,0.10,,SKC,0.98,VWS V14.01,2013-04-18 15:00:00,
2013-04-18 10:01:00,46.5,44.0,29.90,West,268,1.0,14.0,91,0.06,,SKC,1.04,VWS V14.01,2013-04-18 15:01:00,
2013-04-18 10:08:00,46.4,43.9,29.91,North,350,5.0,9.0,91,0.06,,SKC,1.04,VWS V14.01,2013-04-18 15:08:00,
2013-04-18 10:14:00,46.2,43.4,29.92,North,355,2.0,10.0,90,0.06,,SKC,1.04,VWS V14.01,2013-04-18 15:14:00,
2013-04-18 10:20:00,46.0,43.2,29.91,NNW,338,5.0,11.0,90,0.06,,SKC,1.04,VWS V14.01,2013-04-18 15:20:00,
2013-04-18 10:26:00,46.1,43.3,29.92,NNE,28,2.0,11.0,90,0.06,,SKC,1.04,VWS V14.01,2013-04-18 15:26:00,
2013-04-18 10:30:00,46.9,44.7,29.88,NNW,339,6.0,14.0,92,0.03,,SKC,0.99,VWS V14.01,2013-04-18 15:30:00,
2013-04-18 10:31:00,46.4,43.9,29.94,WSW,250,2.0,11.0,91,0.06,,SKC,1.04,VWS V14.01,2013-04-18 15:31:00,
2013-04-18 10:38:00,46.5,43.7,29.95,ESE,107,3.0,11.0,90,0.05,,SKC,1.04,VWS V14.01,2013-04-18 15:38:00,
2013-04-18 10:44:00,46.5,43.4,29.94,WNW,297,5.0,11.0,89,0.05,,SKC,1.04,VWS V14.01,2013-04-18 15:44:00,
2013-04-18 10:50:00,46.7,43.6,29.94,SE,128,4.0,11.0,89,0.05,,SKC,1.04,VWS V14.01,2013-04-18 15:50:00,
2013-04-18 10:56:00,46.9,43.5,29.94,WNW,300,5.0,11.0,88,0.05,,SKC,1.04,VWS V14.01,2013-04-18 15:56:00,
2013-04-18 11:00:00,46.5,44.0,29.90,West,268,1.0,14.0,91,0.06,,SKC,1.04,VWS V14.01,2013-04-18 16:00:00,
2013-04-18 11:02:00,46.9,43.2,29.95,SE,128,2.0,13.0,87,0.00,,SKC,1.04,VWS V14.01,2013-04-18 16:02:00,
2013-04-18 11:08:00,46.7,42.7,29.96,NW,317,2.0,13.0,86,0.00,,SKC,1.04,VWS V14.01,2013-04-18 16:08:00,
2013-04-18 11:14:00,46.8,43.1,29.95,North,355,3.0,13.0,87,0.00,,SKC,1.04,VWS V14.01,2013-04-18 16:14:00,
2013-04-18 11:20:00,46.9,42.9,29.97,North,5,4.0,13.0,86,0.00,,SKC,1.04,VWS V14.01,2013-04-18 16:20:00,
2013-04-18 11:26:00,46.9,42.6,30.02,SE,139,5.0,13.0,85,0.00,,SKC,1.04,VWS V14.01,2013-04-18 16:26:00,
2013-04-18 11:30:00,46.4,43.9,29.94,WSW,250,2.0,11.0,91,0.06,,SKC,1.04,VWS V14.01,2013-04-18 16:30:00,
2013-04-18 11:32:00,47.0,42.4,29.97,South,175,2.0,9.0,84,0.00,,SKC,1.04,VWS V14.01,2013-04-18 16:32:00,
2013-04-18 11:38:00,48.1,44.1,29.94,SE,146,2.0,9.0,86,0.00,,SKC,1.04,VWS V14.01,2013-04-18 16:38:00,
2013-04-18 11:44:00,49.0,44.4,29.94,ESE,121,4.0,10.0,84,0.00,,SKC,1.04,VWS V14.01,2013-04-18 16:44:00,
2013-04-18 11:50:00,49.2,44.0,29.94,NW,306,4.0,12.0,82,0.00,,SKC,1.04,VWS V14.01,2013-04-18 16:50:00,
2013-04-18 11:56:00,49.6,43.7,29.96,North,5,6.0,13.0,80,0.00,,SKC,1.04,VWS V14.01,2013-04-18 16:56:00,
2013-04-18 12:00:00,48.8,42.6,29.97,North,5,6.0,13.0,79,0.00,,SKC,1.04,VWS V14.01,2013-04-18 17:00:00,
2013-04-18 12:02:00,48.6,42.4,29.98,SSE,162,2.0,9.0,79,0.00,,SKC,1.04,VWS V14.01,2013-04-18 17:02:00,
2013-04-18 12:08:00,48.1,42.2,29.98,SSE,148,2.0,10.0,80,0.00,,SKC,1.04,VWS V14.01,2013-04-18 17:08:00,
2013-04-18 12:14:00,48.1,42.5,29.97,NNW,345,7.0,10.0,81,0.00,,SKC,1.04,VWS V14.01,2013-04-18 17:14:00,
2013-04-18 12:20:00,48.5,43.3,29.96,NNW,332,1.0,10.0,82,0.00,,SKC,1.04,VWS V14.01,2013-04-18 17:20:00,
2013-04-18 12:26:00,48.7,42.8,29.95,SE,142,2.0,11.0,80,0.00,,SKC,1.04,VWS V14.01,2013-04-18 17:26:00,
2013-04-18 12:30:00,46.9,42.3,29.99,NE,50,2.0,13.0,84,0.00,,SKC,1.04,VWS V14.01,2013-04-18 17:30:00,
2013-04-18 12:32:00,48.6,42.4,29.95,South,169,3.0,12.0,79,0.00,,SKC,1.04,VWS V14.01,2013-04-18 17:32:00,
2013-04-18 12:39:00,48.5,42.3,29.93,East,82,3.0,12.0,79,0.00,,SKC,1.04,VWS V14.01,2013-04-18 17:39:00,
2013-04-18 12:45:00,48.7,42.5,29.93,NNE,30,2.0,18.0,79,0.00,,SKC,1.04,VWS V14.01,2013-04-18 17:45:00,
2013-04-18 12:51:00,48.6,42.1,29.93,NW,309,3.0,18.0,78,0.00,,SKC,1.04,VWS V14.01,2013-04-18 17:51:00,
2013-04-18 12:57:00,48.5,42.0,29.94,NNW,346,4.0,18.0,78,0.00,,SKC,1.04,VWS V14.01,2013-04-18 17:57:00,
2013-04-18 13:00:00,48.8,42.6,29.97,North,5,6.0,13.0,79,0.00,,SKC,1.04,VWS V14.01,2013-04-18 18:00:00,
2013-04-18 13:03:00,48.3,41.4,29.96,ESE,122,4.0,11.0,77,0.00,,SKC,1.04,VWS V14.01,2013-04-18 18:03:00,
2013-04-18 13:09:00,48.2,41.3,29.95,WNW,299,3.0,11.0,77,0.00,,SKC,1.04,VWS V14.01,2013-04-18 18:09:00,
2013-04-18 13:15:00,48.5,41.6,29.96,NNE,22,6.0,13.0,77,0.00,,SKC,1.04,VWS V14.01,2013-04-18 18:15:00,
2013-04-18 13:21:00,48.5,41.6,29.97,East,101,6.0,13.0,77,0.00,,SKC,1.04,VWS V14.01,2013-04-18 18:21:00,
2013-04-18 13:27:00,48.7,42.2,29.98,NE,55,4.0,13.0,78,0.00,,SKC,1.04,VWS V14.01,2013-04-18 18:27:00,
2013-04-18 13:30:00,48.7,42.8,29.95,NNW,327,3.0,11.0,80,0.00,,SKC,1.04,VWS V14.01,2013-04-18 18:30:00,
2013-04-18 13:33:00,48.7,41.8,29.99,NNE,22,1.0,8.0,77,0.00,,SKC,1.04,VWS V14.01,2013-04-18 18:33:00,
2013-04-18 13:39:00,48.7,41.8,29.99,NNW,328,5.0,8.0,77,0.00,,SKC,1.04,VWS V14.01,2013-04-18 18:39:00,
2013-04-18 13:45:00,48.7,41.5,29.98,NNW,334,7.0,13.0,76,0.00,,SKC,1.04,VWS V14.01,2013-04-18 18:45:00,
2013-04-18 13:51:00,48.9,41.7,29.98,ESE,109,2.0,13.0,76,0.00,,SKC,1.04,VWS V14.01,2013-04-18 18:51:00,
2013-04-18 13:57:00,49.1,41.5,29.98,NW,311,4.0,13.0,75,0.00,,SKC,1.04,VWS V14.01,2013-04-18 18:57:00,
2013-04-18 14:00:00,48.4,41.5,29.95,NNE,20,6.0,18.0,77,0.00,,SKC,1.04,VWS V14.01,2013-04-18 19:00:00,
2013-04-18 14:03:00,49.6,42.4,29.98,NW,321,1.0,5.0,76,0.00,,SKC,1.04,VWS V14.01,2013-04-18 19:03:00,
2013-04-18 14:09:00,50.3,43.0,29.98,NNW,336,7.0,8.0,76,0.00,,SKC,1.04,VWS V14.01,2013-04-18 19:09:00,
2013-04-18 14:15:00,50.7,42.7,29.97,NW,304,4.0,12.0,74,0.00,,SKC,1.04,VWS V14.01,2013-04-18 19:15:00,
2013-04-18 14:21:00,51.1,42.8,29.98,ESE,115,2.0,12.0,73,0.00,,SKC,1.04,VWS V14.01,2013-04-18 19:21:00,
2013-04-18 14:27:00,51.4,42.7,29.98,NNW,339,7.0,12.0,72,0.00,,SKC,1.04,VWS V14.01,2013-04-18 19:27:00,
2013-04-18 14:30:00,48.7,41.8,29.98,ESE,105,2.0,13.0,77,0.00,,SKC,1.04,VWS V14.01,2013-04-18 19:30:00,
2013-04-18 14:33:00,51.7,42.2,29.98,North,9,4.0,7.0,70,0.00,,SKC,1.04,VWS V14.01,2013-04-18 19:33:00,
2013-04-18 14:39:00,52.4,43.3,29.98,NW,323,4.0,10.0,71,0.00,,SKC,1.04,VWS V14.01,2013-04-18 19:39:00,
2013-04-18 14:45:00,52.6,42.3,29.97,NW,304,1.0,10.0,68,0.00,,SKC,1.04,VWS V14.01,2013-04-18 19:45:00,
2013-04-18 14:51:00,53.1,43.2,29.98,NNW,328,8.0,10.0,69,0.00,,SKC,1.04,VWS V14.01,2013-04-18 19:51:00,
2013-04-18 14:57:00,53.3,43.0,29.98,SSE,165,3.0,10.0,68,0.00,,SKC,1.04,VWS V14.01,2013-04-18 19:57:00,
2013-04-18 15:00:00,49.3,42.1,29.98,SSW,210,2.0,13.0,76,0.00,,SKC,1.04,VWS V14.01,2013-04-18 20:00:00,
2013-04-18 15:03:00,53.5,42.4,29.98,WSW,243,4.0,8.0,66,0.00,,SKC,1.04,VWS V14.01,2013-04-18 20:03:00,
2013-04-18 15:09:00,53.4,42.3,29.98,ENE,69,3.0,11.0,66,0.00,,SKC,1.04,VWS V14.01,2013-04-18 20:09:00,
2013-04-18 15:15:00,53.9,43.2,29.98,North,355,3.0,11.0,67,0.00,,SKC,1.04,VWS V14.01,2013-04-18 20:15:00,
2013-04-18 15:21:00,54.2,43.1,29.97,NNE,21,4.0,11.0,66,0.00,,SKC,1.04,VWS V14.01,2013-04-18 20:21:00,
2013-04-18 15:27:00,55.2,44.5,29.97,SSW,198,4.0,12.0,67,0.00,,SKC,1.04,VWS V14.01,2013-04-18 20:27:00,
2013-04-18 15:30:00,51.7,42.6,29.98,ENE,59,1.0,12.0,71,0.00,,SKC,1.04,VWS V14.01,2013-04-18 20:30:00,
2013-04-18 15:33:00,55.7,43.3,29.97,WNW,292,4.0,11.0,63,0.00,,SKC,1.04,VWS V14.01,2013-04-18 20:33:00,
2013-04-18 15:39:00,56.1,44.1,29.97,SSE,164,2.0,11.0,64,0.00,,SKC,1.04,VWS V14.01,2013-04-18 20:39:00,
2013-04-18 15:45:00,57.0,44.5,29.96,NNW,332,4.0,11.0,63,0.00,,SKC,1.04,VWS V14.01,2013-04-18 20:45:00,
2013-04-18 15:51:00,56.9,43.6,29.96,NW,317,5.0,13.0,61,0.00,,SKC,1.04,VWS V14.01,2013-04-18 20:51:00,
2013-04-18 15:57:00,56.9,43.6,29.97,NW,304,4.0,13.0,61,0.00,,SKC,1.04,VWS V14.01,2013-04-18 20:57:00,
2013-04-18 16:00:00,53.6,42.9,29.98,NNW,332,3.0,10.0,67,0.00,,SKC,1.04,VWS V14.01,2013-04-18 21:00:00,
2013-04-18 16:03:00,56.9,43.2,29.97,West,274,2.0,13.0,60,0.00,,SKC,1.04,VWS V14.01,2013-04-18 21:03:00,
2013-04-18 16:09:00,57.3,44.0,29.97,NNE,21,2.0,13.0,61,0.00,,SKC,1.04,VWS V14.01,2013-04-18 21:09:00,
2013-04-18 16:15:00,57.7,44.8,29.96,SSE,164,3.0,13.0,62,0.00,,SKC,1.04,VWS V14.01,2013-04-18 21:15:00,
2013-04-18 16:21:00,57.9,44.1,29.97,NW,321,7.0,13.0,60,0.00,,SKC,1.04,VWS V14.01,2013-04-18 21:21:00,
2013-04-18 16:27:00,57.9,43.7,29.97,WNW,286,5.0,13.0,59,0.00,,SKC,1.04,VWS V14.01,2013-04-18 21:27:00,
2013-04-18 16:30:00,55.7,43.7,29.97,NW,323,7.0,12.0,64,0.00,,SKC,1.04,VWS V14.01,2013-04-18 21:30:00,
2013-04-18 16:33:00,57.6,43.0,29.96,East,79,6.0,9.0,58,0.00,,SKC,1.04,VWS V14.01,2013-04-18 21:33:00,
2013-04-18 16:39:00,57.3,42.7,29.97,NNW,328,8.0,11.0,58,0.00,,SKC,1.04,VWS V14.01,2013-04-18 21:39:00,
2013-04-18 16:45:00,57.2,42.1,29.97,ENE,70,4.0,11.0,57,0.00,,SKC,1.04,VWS V14.01,2013-04-18 21:45:00,
2013-04-18 16:51:00,56.6,42.0,29.97,NNW,345,3.0,12.0,58,0.00,,SKC,1.04,VWS V14.01,2013-04-18 21:51:00,
2013-04-18 16:57:00,57.2,42.1,29.97,SW,236,7.0,13.0,57,0.00,,SKC,1.04,VWS V14.01,2013-04-18 21:57:00,
2013-04-18 17:00:00,57.0,43.7,29.97,WNW,299,3.0,13.0,61,0.00,,SKC,1.04,VWS V14.01,2013-04-18 22:00:00,
2013-04-18 17:03:00,56.6,41.1,29.98,WNW,282,2.0,11.0,56,0.00,,SKC,1.04,VWS V14.01,2013-04-18 22:03:00,
2013-04-18 17:09:00,56.3,41.7,29.98,West,263,4.0,11.0,58,0.00,,SKC,1.04,VWS V14.01,2013-04-18 22:09:00,
2013-04-18 17:15:00,56.2,41.6,29.98,SE,128,2.0,13.0,58,0.00,,SKC,1.04,VWS V14.01,2013-04-18 22:15:00,
2013-04-18 17:21:00,56.1,41.1,29.98,WNW,302,4.0,13.0,57,0.00,,SKC,1.04,VWS V14.01,2013-04-18 22:21:00,
2013-04-18 17:27:00,55.3,41.7,29.98,West,259,3.0,13.0,60,0.00,,SKC,1.04,VWS V14.01,2013-04-18 22:27:00,
2013-04-18 17:30:00,57.9,43.7,29.97,SSE,159,7.0,13.0,59,0.00,,SKC,1.04,VWS V14.01,2013-04-18 22:30:00,
2013-04-18 17:33:00,56.1,42.4,29.98,ENE,59,3.0,6.0,60,0.00,,SKC,1.04,VWS V14.01,2013-04-18 22:33:00,
2013-04-18 17:39:00,56.1,41.5,29.99,WNW,301,4.0,9.0,58,0.00,,SKC,1.04,VWS V14.01,2013-04-18 22:39:00,
2013-04-18 17:45:00,56.1,41.5,29.99,NW,321,2.0,9.0,58,0.00,,SKC,1.04,VWS V14.01,2013-04-18 22:45:00,
2013-04-18 17:52:00,56.1,41.5,29.99,WNW,295,3.0,9.0,58,0.00,,SKC,1.04,VWS V14.01,2013-04-18 22:52:00,
2013-04-18 17:58:00,56.5,41.9,29.99,NNE,30,2.0,12.0,58,0.00,,SKC,1.04,VWS V14.01,2013-04-18 22:58:00,
2013-04-18 18:00:00,56.7,41.7,29.98,NW,304,5.0,13.0,57,0.00,,SKC,1.04,VWS V14.01,2013-04-18 23:00:00,
2013-04-18 18:04:00,57.2,42.6,30.00,WSW,237,5.0,8.0,58,0.00,,SKC,1.04,VWS V14.01,2013-04-18 23:04:00,
2013-04-18 18:10:00,57.0,41.0,30.00,SW,230,4.0,8.0,55,0.00,,SKC,1.04,VWS V14.01,2013-04-18 23:10:00,
2013-04-18 18:16:00,56.9,41.4,30.00,NW,323,5.0,12.0,56,0.00,,SKC,1.04,VWS V14.01,2013-04-18 23:16:00,
2013-04-18 18:22:00,56.6,40.2,30.00,SSE,163,2.0,12.0,54,0.00,,SKC,1.04,VWS V14.01,2013-04-18 23:22:00,
2013-04-18 18:28:00,56.1,40.2,30.00,ENE,68,2.0,12.0,55,0.00,,SKC,1.04,VWS V14.01,2013-04-18 23:28:00,
2013-04-18 18:30:00,55.7,42.5,29.98,North,355,2.0,13.0,61,0.00,,SKC,1.04,VWS V14.01,2013-04-18 23:30:00,
2013-04-18 18:34:00,55.8,40.8,30.00,WNW,302,2.0,7.0,57,0.00,,SKC,1.04,VWS V14.01,2013-04-18 23:34:00,
2013-04-18 18:40:00,55.5,41.4,30.01,NNE,13,2.0,7.0,59,0.00,,SKC,1.04,VWS V14.01,2013-04-18 23:40:00,
2013-04-18 18:46:00,55.0,40.5,30.01,NE,52,6.0,8.0,58,0.00,,SKC,1.04,VWS V14.01,2013-04-18 23:46:00,
2013-04-18 18:52:00,54.6,40.1,30.01,East,99,3.0,8.0,58,0.00,,SKC,1.04,VWS V14.01,2013-04-18 23:52:00,
2013-04-18 18:58:00,54.2,40.6,30.01,NNW,342,4.0,8.0,60,0.00,,SKC,1.04,VWS V14.01,2013-04-18 23:58:00,
2013-04-18 19:00:00,56.9,41.8,29.99,SW,231,2.0,12.0,57,0.00,,SKC,1.04,VWS V14.01,2013-04-19 00:00:00,
2013-04-18 19:04:00,54.0,40.0,30.01,NNW,344,6.0,8.0,59,0.00,,SKC,1.04,VWS V14.01,2013-04-19 00:04:00,
2013-04-18 19:10:00,53.7,39.3,30.02,SE,139,3.0,10.0,58,0.00,,SKC,1.04,VWS V14.01,2013-04-19 00:10:00,
2013-04-18 19:16:00,53.3,39.8,30.02,NNW,346,3.0,10.0,60,0.00,,SKC,1.04,VWS V14.01,2013-04-19 00:16:00,
2013-04-18 19:22:00,53.1,39.2,30.03,NW,325,6.0,10.0,59,0.00,,SKC,1.04,VWS V14.01,2013-04-19 00:22:00,
2013-04-18 19:28:00,53.0,39.5,30.03,WNW,292,2.0,10.0,60,0.00,,SKC,1.04,VWS V14.01,2013-04-19 00:28:00,
2013-04-18 19:30:00,56.0,40.5,30.00,ENE,63,1.0,12.0,56,0.00,,SKC,1.04,VWS V14.01,2013-04-19 00:30:00,
2013-04-18 19:34:00,52.8,39.3,30.03,SE,126,2.0,5.0,60,0.00,,SKC,1.04,VWS V14.01,2013-04-19 00:34:00,
2013-04-18 19:40:00,52.5,39.5,30.03,NE,38,1.0,6.0,61,0.00,,SKC,1.04,VWS V14.01,2013-04-19 00:40:00,
2013-04-18 19:46:00,52.3,39.3,30.04,SE,124,1.0,7.0,61,0.00,,SKC,1.04,VWS V14.01,2013-04-19 00:46:00,
2013-04-18 19:52:00,52.1,39.1,30.04,NE,46,2.0,7.0,61,0.00,,SKC,1.04,VWS V14.01,2013-04-19 00:52:00,
2013-04-18 19:58:00,51.7,38.7,30.05,NNW,346,2.0,8.0,61,0.00,,SKC,1.04,VWS V14.01,2013-04-19 00:58:00,
2013-04-18 20:00:00,54.1,40.1,30.01,NW,304,6.0,8.0,59,0.00,,SKC,1.04,VWS V14.01,2013-04-19 01:00:00,
2013-04-18 20:04:00,51.4,38.4,30.05,ENE,69,0.0,6.0,61,0.00,,SKC,1.04,VWS V14.01,2013-04-19 01:04:00,
2013-04-18 20:10:00,51.1,38.5,30.06,East,98,3.0,6.0,62,0.00,,SKC,1.04,VWS V14.01,2013-04-19 01:10:00,
2013-04-18 20:16:00,50.9,38.4,30.06,NNW,329,2.0,7.0,62,0.00,,SKC,1.04,VWS V14.01,2013-04-19 01:16:00,
2013-04-18 20:22:00,50.7,38.6,30.07,WNW,287,2.0,7.0,63,0.00,,SKC,1.04,VWS V14.01,2013-04-19 01:22:00,
2013-04-18 20:28:00,50.4,38.7,30.07,NE,45,1.0,7.0,64,0.00,,SKC,1.04,VWS V14.01,2013-04-19 01:28:00,
2013-04-18 20:30:00,52.9,39.0,30.03,ENE,65,2.0,10.0,59,0.00,,SKC,1.04,VWS V14.01,2013-04-19 01:30:00,
2013-04-18 20:34:00,50.1,38.8,30.08,North,360,5.0,6.0,65,0.00,,SKC,1.04,VWS V14.01,2013-04-19 01:34:00,
2013-04-18 20:40:00,50.1,38.0,30.08,WNW,294,10.0,10.0,63,0.00,,SKC,1.04,VWS V14.01,2013-04-19 01:40:00,
2013-04-18 20:46:00,50.1,38.0,30.09,NW,324,5.0,10.0,63,0.00,,SKC,1.04,VWS V14.01,2013-04-19 01:46:00,
2013-04-18 20:52:00,49.8,37.7,30.10,East,94,5.0,10.0,63,0.00,,SKC,1.04,VWS V14.01,2013-04-19 01:52:00,
2013-04-18 20:58:00,49.7,37.2,30.10,ESE,104,4.0,10.0,62,0.00,,SKC,1.04,VWS V14.01,2013-04-19 01:58:00,
2013-04-18 21:00:00,51.5,38.5,30.05,ENE,57,3.0,8.0,61,0.00,,SKC,1.04,VWS V14.01,2013-04-19 02:00:00,
2013-04-18 21:04:00,49.5,37.0,30.11,ESE,121,3.0,8.0,62,0.00,,SKC,1.04,VWS V14.01,2013-04-19 02:04:00,
2013-04-18 21:10:00,49.3,37.2,30.11,NW,325,3.0,8.0,63,0.00,,SKC,1.04,VWS V14.01,2013-04-19 02:10:00,
2013-04-18 21:16:00,49.1,37.1,30.12,SSW,207,0.0,8.0,63,0.00,,SKC,1.04,VWS V14.01,2013-04-19 02:16:00,
2013-04-18 21:22:00,48.9,36.9,30.13,NW,319,6.0,8.0,63,0.00,,SKC,1.04,VWS V14.01,2013-04-19 02:22:00,
2013-04-18 21:28:00,48.8,37.2,30.13,NW,323,7.0,8.0,64,0.00,,SKC,1.04,VWS V14.01,2013-04-19 02:28:00,
2013-04-18 21:30:00,50.3,39.0,30.08,South,183,1.0,7.0,65,0.00,,SKC,1.04,VWS V14.01,2013-04-19 02:30:00,
2013-04-18 21:34:00,48.5,36.9,30.13,North,360,2.0,3.0,64,0.00,,SKC,1.04,VWS V14.01,2013-04-19 02:34:00,
2013-04-18 21:40:00,48.4,36.8,30.14,NNW,338,5.0,5.0,64,0.00,,SKC,1.04,VWS V14.01,2013-04-19 02:40:00,
2013-04-18 21:46:00,48.3,36.7,30.15,ENE,69,3.0,5.0,64,0.00,,SKC,1.04,VWS V14.01,2013-04-19 02:46:00,
2013-04-18 21:52:00,48.2,36.6,30.15,NE,43,4.0,10.0,64,0.00,,SKC,1.04,VWS V14.01,2013-04-19 02:52:00,
2013-04-18 21:58:00,48.2,36.6,30.15,NNW,331,4.0,10.0,64,0.00,,SKC,1.04,VWS V14.01,2013-04-19 02:58:00,
2013-04-18 22:00:00,49.6,37.5,30.11,NW,325,3.0,10.0,63,0.00,,SKC,1.04,VWS V14.01,2013-04-19 03:00:00,
2013-04-18 22:04:00,48.0,36.4,30.16,SSW,192,2.0,5.0,64,0.00,,SKC,1.04,VWS V14.01,2013-04-19 03:04:00,
2013-04-18 22:10:00,47.8,36.6,30.16,ESE,115,0.0,9.0,65,0.00,,SKC,1.04,VWS V14.01,2013-04-19 03:10:00,
2013-04-18 22:16:00,47.7,36.1,30.17,East,94,2.0,9.0,64,0.00,,SKC,1.04,VWS V14.01,2013-04-19 03:16:00,
2013-04-18 22:22:00,47.7,36.1,30.17,ESE,112,0.0,9.0,64,0.00,,SKC,1.04,VWS V14.01,2013-04-19 03:22:00,
2013-04-18 22:28:00,47.6,36.4,30.17,NNW,334,3.0,9.0,65,0.00,,SKC,1.04,VWS V14.01,2013-04-19 03:28:00,
2013-04-18 22:30:00,48.7,37.1,30.13,SE,140,2.0,8.0,64,0.00,,SKC,1.04,VWS V14.01,2013-04-19 03:30:00,
2013-04-18 22:34:00,47.3,36.5,30.18,NNE,27,3.0,6.0,66,0.00,,SKC,1.04,VWS V14.01,2013-04-19 03:34:00,
2013-04-18 22:40:00,47.1,36.7,30.18,East,83,2.0,6.0,67,0.00,,SKC,1.04,VWS V14.01,2013-04-19 03:40:00,
2013-04-18 22:46:00,46.9,36.5,30.18,ENE,64,0.0,6.0,67,0.00,,SKC,1.04,VWS V14.01,2013-04-19 03:46:00,
2013-04-18 22:52:00,46.7,36.3,30.18,ESE,107,2.0,6.0,67,0.00,,SKC,1.04,VWS V14.01,2013-04-19 03:52:00,
2013-04-18 22:58:00,46.6,36.6,30.18,ENE,66,1.0,6.0,68,0.00,,SKC,1.04,VWS V14.01,2013-04-19 03:58:00,
2013-04-18 23:00:00,48.1,36.9,30.15,ENE,71,3.0,10.0,65,0.00,,SKC,1.04,VWS V14.01,2013-04-19 04:00:00,
2013-04-18 23:01:00,46.5,36.2,30.18,NNE,22,1.0,6.0,67,0.00,,SKC,1.04,VWS V14.01,2013-04-19 04:01:00,
2013-04-18 23:04:00,46.4,36.4,30.18,ENE,67,1.0,2.0,68,0.00,,SKC,1.04,VWS V14.01,2013-04-19 04:04:00,
2013-04-18 23:10:00,46.3,36.3,30.18,NNW,342,1.0,3.0,68,0.00,,SKC,1.04,VWS V14.01,2013-04-19 04:10:00,
2013-04-18 23:13:00,46.2,36.2,30.18,SSW,210,1.0,3.0,68,0.00,,SKC,1.04,VWS V14.01,2013-04-19 04:13:00,
2013-04-18 23:16:00,46.1,36.5,30.18,South,175,0.0,3.0,69,0.00,,SKC,1.04,VWS V14.01,2013-04-19 04:16:00,
2013-04-18 23:22:00,45.9,36.3,30.18,NNW,343,0.0,4.0,69,0.00,,SKC,1.04,VWS V14.01,2013-04-19 04:22:00,
2013-04-18 23:28:00,45.8,36.6,30.18,NW,314,1.0,5.0,70,0.00,,SKC,1.04,VWS V14.01,2013-04-19 04:28:00,
2013-04-18 23:30:00,47.4,36.2,30.17,West,271,4.0,9.0,65,0.00,,SKC,1.04,VWS V14.01,2013-04-19 04:30:00,
2013-04-18 23:34:00,45.7,36.1,30.18,East,99,0.0,4.0,69,0.00,,SKC,1.04,VWS V14.01,2013-04-19 04:34:00,
2013-04-18 23:40:00,45.7,35.8,30.18,North,9,0.0,6.0,68,0.00,,SKC,1.04,VWS V14.01,2013-04-19 04:40:00,
2013-04-18 23:46:00,45.6,36.0,30.18,ESE,105,0.0,6.0,69,0.00,,SKC,1.04,VWS V14.01,2013-04-19 04:46:00,
2013-04-18 23:52:00,45.4,35.8,30.18,NNW,340,0.0,6.0,69,0.00,,SKC,1.04,VWS V14.01,2013-04-19 04:52:00,
2013-04-18 23:58:00,45.4,35.8,30.19,WNW,289,0.0,6.0,69,0.00,,SKC,1.04,VWS V14.01,2013-04-19 04:58:00,